DTH040 DTTA-DAAG
Flight info
| Callsign | DTH040 |
|---|---|
| Flight time | N/A |
| Altitude | 28000 |
| Route | KEMIR UM978 MORJA UA411 BJA J7 LIMON G26 ZEM |
| Aircraft | A320/M-SDE3FGHIRWY/LB1 |
Departure
| Time | N/A |
|---|---|
| Airport | Tunis Carthage International Airport (DTTA) |
Arrival
| Time | 2026-05-08 19:57 |
|---|---|
| Airport | Houari Boumediene Airport (DAAG) |
| Time | Latitude | Longitude | Altitude | Speed | Heading |
|---|---|---|---|---|---|
| 2026-05-08 19:24 | 36.98951 | 4.17438 | 23265 ft | 386 kts | 287° |
| 2026-05-08 19:25 | 36.99875 | 4.14352 | 22487 ft | 383 kts | 287° |
| 2026-05-08 19:25 | 37.00807 | 4.11228 | 21762 ft | 380 kts | 287° |
| 2026-05-08 19:25 | 37.01724 | 4.08145 | 21079 ft | 377 kts | 287° |
| 2026-05-08 19:25 | 37.02646 | 4.05032 | 20408 ft | 375 kts | 287° |
| 2026-05-08 19:26 | 37.03551 | 4.01980 | 19780 ft | 373 kts | 287° |
| 2026-05-08 19:26 | 37.04449 | 3.98952 | 19194 ft | 370 kts | 287° |
| 2026-05-08 19:26 | 37.05329 | 3.95992 | 19051 ft | 355 kts | 287° |
| 2026-05-08 19:26 | 37.06172 | 3.93162 | 18933 ft | 340 kts | 287° |
| 2026-05-08 19:27 | 37.06981 | 3.90447 | 18815 ft | 326 kts | 287° |
| 2026-05-08 19:27 | 37.08003 | 3.87974 | 18703 ft | 319 kts | 303° |
| 2026-05-08 19:27 | 37.09613 | 3.86105 | 18584 ft | 316 kts | 323° |
| 2026-05-08 19:27 | 37.11640 | 3.85075 | 18471 ft | 316 kts | 343° |
| 2026-05-08 19:28 | 37.13831 | 3.85016 | 18361 ft | 317 kts | 4° |
| 2026-05-08 19:28 | 37.15907 | 3.85925 | 18243 ft | 317 kts | 26° |
| 2026-05-08 19:28 | 37.17579 | 3.87645 | 18100 ft | 315 kts | 48° |
| 2026-05-08 19:28 | 37.18674 | 3.90018 | 17976 ft | 309 kts | 71° |
| 2026-05-08 19:29 | 37.19036 | 3.92613 | 17831 ft | 299 kts | 93° |
| 2026-05-08 19:29 | 37.18719 | 3.95142 | 17566 ft | 291 kts | 110° |
| 2026-05-08 19:29 | 37.18113 | 3.97508 | 17269 ft | 288 kts | 114° |
| 2026-05-08 19:29 | 37.17405 | 3.99882 | 16976 ft | 286 kts | 116° |
| 2026-05-08 19:30 | 37.16691 | 4.02167 | 16700 ft | 284 kts | 116° |
| 2026-05-08 19:30 | 37.15383 | 4.06324 | 16210 ft | 280 kts | 119° |
| 2026-05-08 19:30 | 37.14373 | 4.08352 | 15941 ft | 270 kts | 139° |
| 2026-05-08 19:31 | 37.12988 | 4.09852 | 15679 ft | 258 kts | 156° |
| 2026-05-08 19:31 | 37.11393 | 4.10748 | 15413 ft | 247 kts | 173° |
| 2026-05-08 19:31 | 37.09735 | 4.11046 | 15149 ft | 237 kts | 188° |
| 2026-05-08 19:31 | 37.08132 | 4.10786 | 14880 ft | 229 kts | 201° |
| 2026-05-08 19:32 | 37.06685 | 4.10054 | 14618 ft | 222 kts | 214° |
| 2026-05-08 19:32 | 37.05453 | 4.08921 | 14363 ft | 218 kts | 227° |
| 2026-05-08 19:32 | 37.04503 | 4.07471 | 14106 ft | 215 kts | 239° |
| 2026-05-08 19:32 | 37.03861 | 4.05786 | 13843 ft | 215 kts | 250° |
| 2026-05-08 19:33 | 37.03560 | 4.03927 | 13544 ft | 216 kts | 263° |
| 2026-05-08 19:33 | 37.03630 | 4.02036 | 13221 ft | 220 kts | 276° |
| 2026-05-08 19:33 | 37.04014 | 4.00196 | 12912 ft | 223 kts | 282° |
| 2026-05-08 19:33 | 37.04536 | 3.98340 | 12593 ft | 223 kts | 284° |
| 2026-05-08 19:34 | 37.05086 | 3.96523 | 12278 ft | 223 kts | 285° |
| 2026-05-08 19:34 | 37.05643 | 3.94715 | 11969 ft | 222 kts | 285° |
| 2026-05-08 19:34 | 37.06191 | 3.92931 | 11658 ft | 222 kts | 285° |
| 2026-05-08 19:34 | 37.06497 | 3.91021 | 10977 ft | 229 kts | 264° |
| 2026-05-08 19:35 | 37.06100 | 3.89058 | 10297 ft | 241 kts | 239° |
| 2026-05-08 19:35 | 37.04980 | 3.87398 | 10035 ft | 260 kts | 222° |
| 2026-05-08 19:35 | 37.03622 | 3.85848 | 9973 ft | 267 kts | 224° |
| 2026-05-08 19:35 | 37.02275 | 3.84244 | 9912 ft | 266 kts | 224° |
| 2026-05-08 19:36 | 37.00950 | 3.82642 | 9467 ft | 265 kts | 224° |
| 2026-05-08 19:36 | 36.99623 | 3.81036 | 9018 ft | 265 kts | 224° |
| 2026-05-08 19:36 | 36.98297 | 3.79443 | 8569 ft | 264 kts | 224° |
| 2026-05-08 19:36 | 36.96967 | 3.77851 | 8121 ft | 264 kts | 224° |
| 2026-05-08 19:37 | 36.95637 | 3.76261 | 7640 ft | 264 kts | 224° |
| 2026-05-08 19:37 | 36.94306 | 3.74676 | 7205 ft | 264 kts | 224° |
| 2026-05-08 19:37 | 36.92976 | 3.73096 | 6742 ft | 265 kts | 224° |
| 2026-05-08 19:37 | 36.91640 | 3.71507 | 6287 ft | 265 kts | 224° |
| 2026-05-08 19:38 | 36.90311 | 3.69925 | 5837 ft | 264 kts | 224° |
| 2026-05-08 19:38 | 36.88987 | 3.68350 | 5401 ft | 262 kts | 224° |
| 2026-05-08 19:38 | 36.87669 | 3.66780 | 5034 ft | 260 kts | 223° |
| 2026-05-08 19:38 | 36.86357 | 3.65217 | 4975 ft | 262 kts | 223° |
| 2026-05-08 19:39 | 36.85028 | 3.63637 | 4978 ft | 264 kts | 223° |
| 2026-05-08 19:39 | 36.83695 | 3.62058 | 4977 ft | 265 kts | 223° |
| 2026-05-08 19:39 | 36.82355 | 3.60475 | 4978 ft | 265 kts | 223° |
| 2026-05-08 19:39 | 36.81011 | 3.58885 | 4982 ft | 266 kts | 223° |
| 2026-05-08 19:40 | 36.80124 | 3.57834 | 4981 ft | 266 kts | 223° |
| 2026-05-08 19:40 | 36.79005 | 3.56482 | 4971 ft | 265 kts | 223° |
| 2026-05-08 19:40 | 36.77674 | 3.54877 | 4980 ft | 266 kts | 223° |
| 2026-05-08 19:41 | 36.76404 | 3.53199 | 4984 ft | 267 kts | 235° |
| 2026-05-08 19:41 | 36.75763 | 3.51037 | 4990 ft | 270 kts | 263° |
| 2026-05-08 19:41 | 36.75931 | 3.48714 | 4982 ft | 273 kts | 287° |
| 2026-05-08 19:41 | 36.76750 | 3.46563 | 4993 ft | 275 kts | 297° |
| 2026-05-08 19:42 | 36.77686 | 3.44485 | 4991 ft | 275 kts | 298° |
| 2026-05-08 19:42 | 36.78634 | 3.42413 | 4994 ft | 275 kts | 298° |
| 2026-05-08 19:42 | 36.79585 | 3.40335 | 4990 ft | 275 kts | 298° |
| 2026-05-08 19:42 | 36.80537 | 3.38264 | 4995 ft | 275 kts | 298° |
| 2026-05-08 19:43 | 36.81338 | 3.36108 | 4995 ft | 272 kts | 281° |
| 2026-05-08 19:43 | 36.81456 | 3.33771 | 4997 ft | 271 kts | 267° |
| 2026-05-08 19:43 | 36.81372 | 3.31428 | 4999 ft | 270 kts | 265° |
| 2026-05-08 19:43 | 36.81271 | 3.29089 | 4867 ft | 268 kts | 265° |
| 2026-05-08 19:44 | 36.81170 | 3.26765 | 4356 ft | 268 kts | 265° |
| 2026-05-08 19:44 | 36.81063 | 3.24436 | 4044 ft | 269 kts | 265° |
| 2026-05-08 19:44 | 36.80946 | 3.22106 | 3997 ft | 271 kts | 265° |
| 2026-05-08 19:44 | 36.80846 | 3.19746 | 4002 ft | 272 kts | 268° |
| 2026-05-08 19:45 | 36.80808 | 3.17384 | 4003 ft | 273 kts | 268° |
| 2026-05-08 19:45 | 36.80778 | 3.15003 | 3993 ft | 273 kts | 268° |
| 2026-05-08 19:45 | 36.80751 | 3.12637 | 4004 ft | 273 kts | 268° |
| 2026-05-08 19:45 | 36.80723 | 3.10281 | 3992 ft | 267 kts | 268° |
| 2026-05-08 19:46 | 36.80696 | 3.08055 | 3991 ft | 248 kts | 268° |
| 2026-05-08 19:46 | 36.80672 | 3.05976 | 3992 ft | 233 kts | 268° |
| 2026-05-08 19:46 | 36.80628 | 3.01963 | 3994 ft | 230 kts | 268° |
| 2026-05-08 19:47 | 36.80606 | 2.99967 | 3994 ft | 230 kts | 268° |
| 2026-05-08 19:47 | 36.80583 | 2.97969 | 3994 ft | 230 kts | 268° |
| 2026-05-08 19:47 | 36.80559 | 2.96001 | 3988 ft | 230 kts | 268° |
| 2026-05-08 19:47 | 36.80534 | 2.94005 | 3992 ft | 230 kts | 268° |
| 2026-05-08 19:48 | 36.80508 | 2.92007 | 3986 ft | 230 kts | 268° |
| 2026-05-08 19:48 | 36.80482 | 2.90011 | 3987 ft | 230 kts | 268° |
| 2026-05-08 19:48 | 36.80457 | 2.87986 | 3985 ft | 230 kts | 268° |
| 2026-05-08 19:48 | 36.80285 | 2.86064 | 3977 ft | 219 kts | 247° |
| 2026-05-08 19:49 | 36.79406 | 2.84596 | 3985 ft | 215 kts | 212° |
| 2026-05-08 19:49 | 36.78028 | 2.83949 | 3987 ft | 213 kts | 189° |
| 2026-05-08 19:49 | 36.75411 | 2.83503 | 3977 ft | 213 kts | 185° |
| 2026-05-08 19:50 | 36.73935 | 2.83346 | 3985 ft | 212 kts | 176° |
| 2026-05-08 19:50 | 36.72503 | 2.83712 | 3980 ft | 210 kts | 156° |
| 2026-05-08 19:50 | 36.71260 | 2.84655 | 3983 ft | 210 kts | 137° |
| 2026-05-08 19:50 | 36.70351 | 2.86059 | 3979 ft | 206 kts | 118° |
| 2026-05-08 19:51 | 36.69896 | 2.87661 | 4013 ft | 188 kts | 101° |
| 2026-05-08 19:51 | 36.69817 | 2.89208 | 3981 ft | 170 kts | 92° |
| 2026-05-08 19:51 | 36.69786 | 2.90670 | 3986 ft | 180 kts | 92° |
| 2026-05-08 19:51 | 36.69752 | 2.92272 | 3845 ft | 187 kts | 92° |
| 2026-05-08 19:52 | 36.69718 | 2.93879 | 3682 ft | 182 kts | 92° |
| 2026-05-08 19:52 | 36.69685 | 2.95438 | 3444 ft | 179 kts | 92° |
| 2026-05-08 19:52 | 36.69652 | 2.96972 | 3215 ft | 174 kts | 91° |
| 2026-05-08 19:52 | 36.69620 | 2.98459 | 2990 ft | 169 kts | 91° |
| 2026-05-08 19:53 | 36.69589 | 2.99913 | 2771 ft | 166 kts | 91° |
| 2026-05-08 19:53 | 36.69558 | 3.01338 | 2556 ft | 164 kts | 91° |
| 2026-05-08 19:53 | 36.69527 | 3.02740 | 2344 ft | 160 kts | 90° |
| 2026-05-08 19:53 | 36.69497 | 3.04122 | 2134 ft | 158 kts | 91° |
| 2026-05-08 19:54 | 36.69467 | 3.05481 | 1930 ft | 156 kts | 90° |
| 2026-05-08 19:54 | 36.69437 | 3.06830 | 1723 ft | 155 kts | 90° |
| 2026-05-08 19:54 | 36.69408 | 3.08160 | 1516 ft | 151 kts | 90° |
| 2026-05-08 19:54 | 36.69379 | 3.09449 | 1315 ft | 146 kts | 90° |
| 2026-05-08 19:55 | 36.69350 | 3.10697 | 1118 ft | 140 kts | 91° |
| 2026-05-08 19:55 | 36.69324 | 3.11886 | 933 ft | 134 kts | 90° |
| 2026-05-08 19:55 | 36.69298 | 3.12983 | 766 ft | 129 kts | 90° |
| 2026-05-08 19:55 | 36.69273 | 3.14097 | 589 ft | 129 kts | 90° |
| 2026-05-08 19:56 | 36.69248 | 3.15209 | 407 ft | 129 kts | 89° |
| 2026-05-08 19:56 | 36.69221 | 3.16378 | 229 ft | 126 kts | 90° |
| 2026-05-08 19:56 | 36.69202 | 3.17239 | 92 ft | 123 kts | 89° |
| 2026-05-08 19:56 | 36.69180 | 3.18267 | 70 ft | 113 kts | 94° |
| 2026-05-08 19:57 | 36.69162 | 3.19112 | 68 ft | 89 kts | 91° |
| 2026-05-08 19:57 | 36.69159 | 3.19741 | 68 ft | 39 kts | 77° |
| 2026-05-08 19:57 | 36.69224 | 3.19932 | 65 ft | 32 kts | 66° |
| 2026-05-08 19:57 | 36.69329 | 3.20260 | 71 ft | 49 kts | 74° |
| 2026-05-08 19:58 | 36.69304 | 3.20578 | 63 ft | 29 kts | 101° |
| 2026-05-08 19:58 | 36.69284 | 3.20829 | 71 ft | 26 kts | 84° |
| 2026-05-08 19:58 | 36.69418 | 3.20875 | 66 ft | 24 kts | 337° |
| 2026-05-08 19:58 | 36.69566 | 3.20805 | 70 ft | 18 kts | 334° |
| 2026-05-08 19:59 | 36.69637 | 3.20772 | 64 ft | 8 kts | 19° |
| 2026-05-08 19:59 | 36.69683 | 3.20780 | 70 ft | 1 kts | 7° |
| 2026-05-08 19:59 | 36.69709 | 3.20784 | 70 ft | 5 kts | 7° |
| 2026-05-08 19:59 | 36.69712 | 3.20784 | 70 ft | 0 kts | 7° |
| 2026-05-08 20:00 | 36.69697 | 3.20782 | 70 ft | 0 kts | 7° |
| 2026-05-08 20:01 | 36.69705 | 3.20783 | 70 ft | 3 kts | 7° |
| 2026-05-08 20:01 | 36.69728 | 3.20787 | 70 ft | 0 kts | 7° |
| 2026-05-08 20:01 | 36.69729 | 3.20786 | 69 ft | 0 kts | 5° |